Time;durP1;ratioP1;P1;durP2;ratioP2;P2;SDS_P1;SDS_P2;PMS_P1;PMS_P2;Temp;Humidity;BMP_temperature;BMP_pressure;BME280_temperature;BME280_humidity;BME280_pressure;Samples;Min_cycle;Max_cycle;Signal;HPM_P1;HPM_P2
2022/10/22 00:00:03;;;;;;;1.20;0.97;;;18.50;85.60;;;-142.21;100.00;112049.66;5073048;28;20537;-70
2022/10/22 00:02:30;;;;;;;0.97;0.87;;;18.40;85.80;;;-142.21;100.00;112049.66;5053668;28;20454;-69
2022/10/22 00:04:57;;;;;;;2.00;0.70;;;18.30;85.90;;;-142.21;100.00;112049.66;5061493;28;20526;-70
2022/10/22 00:07:25;;;;;;;1.10;1.00;;;18.30;86.10;;;-142.21;100.00;112049.66;5072876;28;20813;-69
2022/10/22 00:09:52;;;;;;;2.10;0.90;;;18.30;86.00;;;-142.21;100.00;112049.66;5072200;28;20497;-70
2022/10/22 00:12:22;;;;;;;1.23;1.00;;;18.40;85.80;;;-142.21;100.00;112049.66;5072774;28;20505;-70
2022/10/22 00:14:50;;;;;;;0.83;0.60;;;18.40;85.40;;;-142.21;100.00;112049.66;5072051;28;20431;-70
2022/10/22 00:17:18;;;;;;;5.17;1.00;;;18.40;85.20;;;-142.21;100.00;112049.66;5072478;28;20450;-70
2022/10/22 00:19:46;;;;;;;1.10;0.77;;;18.50;85.20;;;-142.21;100.00;112049.66;5072765;28;20995;-70
2022/10/22 00:22:13;;;;;;;2.20;1.10;;;18.40;85.30;;;-142.21;100.00;112049.66;5073162;28;20530;-70
2022/10/22 00:24:41;;;;;;;2.73;1.10;;;18.40;85.60;;;-142.21;100.00;112049.66;5072501;28;20479;-70
2022/10/22 00:27:11;;;;;;;0.93;0.80;;;18.40;86.20;;;-142.21;100.00;112049.66;5072063;28;20534;-70
2022/10/22 00:29:39;;;;;;;1.17;1.03;;;18.40;85.50;;;-142.21;100.00;112049.66;5073078;28;20731;-69
2022/10/22 00:32:07;;;;;;;1.37;0.80;;;18.40;85.50;;;-142.21;100.00;112049.66;5072084;28;20538;-70
2022/10/22 00:34:36;;;;;;;1.73;0.83;;;18.30;85.40;;;-142.21;100.00;112049.66;5072307;28;20947;-69
2022/10/22 00:37:03;;;;;;;0.70;0.70;;;18.30;85.70;;;-142.21;100.00;112049.66;5072113;28;20757;-70
2022/10/22 00:39:30;;;;;;;2.53;0.90;;;18.30;85.30;;;-142.21;100.00;112049.66;5072467;28;20435;-69
2022/10/22 00:41:59;;;;;;;1.27;1.10;;;18.40;85.50;;;-142.21;100.00;112049.66;5071961;28;20489;-69
2022/10/22 00:45:06;;;;;;;2.07;1.03;;;18.40;85.40;;;-142.21;100.00;112049.66;5072665;28;20530;-69
2022/10/22 00:47:38;;;;;;;2.70;1.20;;;18.40;85.30;;;-142.21;100.00;112049.66;5072451;28;20514;-69
2022/10/22 00:50:14;;;;;;;3.33;0.90;;;18.40;85.30;;;-142.21;100.00;112049.66;5071399;28;20526;-69
2022/10/22 00:52:41;;;;;;;1.37;1.00;;;18.40;85.00;;;-142.21;100.00;112049.66;5072736;28;20527;-69
2022/10/22 00:55:11;;;;;;;2.03;1.00;;;18.40;85.10;;;-142.21;100.00;112049.66;5071490;28;20809;-70
2022/10/22 00:57:38;;;;;;;2.07;0.90;;;18.40;85.00;;;-142.21;100.00;112049.66;5072528;28;20471;-70
2022/10/22 01:00:07;;;;;;;1.17;0.80;;;18.40;85.00;;;-142.21;100.00;112049.66;5070334;28;20535;-69
2022/10/22 01:02:35;;;;;;;0.73;0.73;;;18.40;84.80;;;-142.21;100.00;112049.66;5052287;28;20452;-69
2022/10/22 01:05:02;;;;;;;1.03;0.70;;;18.30;84.70;;;-142.21;100.00;112049.66;5052013;28;20472;-70
2022/10/22 01:07:33;;;;;;;0.97;0.60;;;18.40;84.80;;;-142.21;100.00;112049.66;5052278;28;20569;-68
2022/10/22 01:10:12;;;;;;;0.97;0.90;;;18.30;84.70;;;-142.21;100.00;112049.66;5071017;28;20526;-68
2022/10/22 01:12:50;;;;;;;1.30;0.70;;;18.30;84.80;;;-142.21;100.00;112049.66;5072179;28;20911;-69
2022/10/22 01:15:29;;;;;;;0.70;0.63;;;18.30;84.60;;;-142.21;100.00;112049.66;5072141;28;20515;-69
2022/10/22 01:18:06;;;;;;;0.87;0.80;;;18.30;84.50;;;-142.21;100.00;112049.66;5071668;28;20423;-69
2022/10/22 01:21:04;;;;;;;2.10;0.80;;;18.30;84.70;;;-142.21;100.00;112049.66;5066920;28;20431;-69
2022/10/22 01:24:09;;;;;;;0.83;0.70;;;18.30;85.10;;;-142.21;100.00;112049.66;5072101;28;20439;-69
2022/10/22 01:26:56;;;;;;;1.53;0.60;;;18.20;84.60;;;-142.21;100.00;112049.66;5072089;28;20428;-69
2022/10/22 01:29:29;;;;;;;0.33;0.33;;;18.20;84.80;;;-142.21;100.00;112049.66;5071824;28;20467;-70
2022/10/22 01:32:02;;;;;;;2.07;0.50;;;18.10;84.60;;;-142.21;100.00;112049.66;5071184;28;20959;-70
2022/10/22 01:34:32;;;;;;;2.63;0.63;;;18.00;84.80;;;-142.21;100.00;112049.66;5072381;28;20431;-69
2022/10/22 01:37:02;;;;;;;1.10;0.60;;;18.00;85.10;;;-142.21;100.00;112049.66;5071859;28;20444;-68
2022/10/22 01:39:34;;;;;;;1.87;0.60;;;18.00;85.40;;;-142.21;100.00;112049.66;5071756;28;20451;-70
2022/10/22 01:42:01;;;;;;;0.70;0.50;;;18.00;85.40;;;-142.21;100.00;112049.66;5071534;28;20426;-69
2022/10/22 01:44:33;;;;;;;0.83;0.60;;;18.00;85.50;;;-142.21;100.00;112049.66;5070531;28;20534;-70
2022/10/22 01:47:17;;;;;;;2.70;0.60;;;17.90;86.10;;;-142.21;100.00;112049.66;5071129;28;20442;-69
2022/10/22 01:50:23;;;;;;;1.30;0.67;;;17.90;86.50;;;-142.21;100.00;112049.66;5071588;28;20439;-69
2022/10/22 01:53:12;;;;;;;0.67;0.50;;;17.80;86.90;;;-142.21;100.00;112049.66;5070645;28;20431;-68
2022/10/22 01:55:56;;;;;;;0.67;0.67;;;17.80;87.60;;;-142.21;100.00;112049.66;5071954;28;20522;-69
2022/10/22 01:58:40;;;;;;;0.60;0.60;;;17.80;87.60;;;-142.21;100.00;112049.66;5071574;28;20423;-69
2022/10/22 02:01:22;;;;;;;2.33;0.70;;;17.70;88.10;;;-142.21;100.00;112049.66;5071113;28;20432;-68
2022/10/22 02:04:00;;;;;;;1.60;0.90;;;17.70;88.30;;;-142.21;100.00;112049.66;5071722;28;20428;-70
2022/10/22 02:06:31;;;;;;;2.10;1.00;;;17.80;88.60;;;-142.21;100.00;112049.66;5071863;28;20425;-69
2022/10/22 02:09:02;;;;;;;0.93;0.60;;;17.70;88.30;;;-142.21;100.00;112049.66;5070880;28;20478;-69
2022/10/22 02:11:29;;;;;;;1.10;0.73;;;17.80;88.40;;;-142.21;100.00;112049.66;5071825;28;20750;-69
2022/10/22 02:14:03;;;;;;;0.67;0.53;;;17.80;88.50;;;-142.21;100.00;112049.66;5070920;28;20454;-69
2022/10/22 02:16:37;;;;;;;1.40;0.80;;;17.90;88.40;;;-142.21;100.00;112049.66;5071829;28;20434;-69
2022/10/22 02:19:15;;;;;;;1.73;0.90;;;17.90;88.30;;;-142.21;100.00;112049.66;5070663;28;20431;-68
2022/10/22 02:21:43;;;;;;;0.50;0.40;;;17.90;88.20;;;-142.21;100.00;112049.66;5071779;28;20427;-70
2022/10/22 02:24:10;;;;;;;1.37;0.60;;;17.90;88.20;;;-142.21;100.00;112049.66;5070407;28;20241;-70
2022/10/22 02:26:44;;;;;;;1.07;0.80;;;17.90;88.30;;;-142.21;100.00;112049.66;5071676;28;20783;-70
2022/10/22 02:29:18;;;;;;;0.40;0.40;;;17.90;88.40;;;-142.21;100.00;112049.66;5070846;28;20471;-69
2022/10/22 02:31:53;;;;;;;0.60;0.50;;;18.00;88.60;;;-142.21;100.00;112049.66;5072234;28;20432;-69
2022/10/22 02:34:27;;;;;;;1.50;0.80;;;17.90;88.90;;;-142.21;100.00;112049.66;5075427;28;20425;-69
2022/10/22 02:36:56;;;;;;;1.37;0.70;;;17.80;89.50;;;-142.21;100.00;112049.66;5074987;28;20427;-69
2022/10/22 02:39:24;;;;;;;2.07;0.60;;;17.80;89.60;;;-142.21;100.00;112049.66;5074675;28;20447;-71
2022/10/22 02:41:51;;;;;;;1.50;1.00;;;17.80;89.60;;;-142.21;100.00;112049.66;5074440;28;20447;-70
2022/10/22 02:44:22;;;;;;;0.70;0.63;;;17.80;89.60;;;-142.21;100.00;112049.66;5074139;28;20446;-70
2022/10/22 02:46:51;;;;;;;0.70;0.70;;;17.90;89.80;;;-142.21;100.00;112049.66;5075156;28;20423;-69
2022/10/22 02:49:18;;;;;;;1.73;0.63;;;17.90;89.70;;;-142.21;100.00;112049.66;5073928;28;20489;-69
2022/10/22 02:51:45;;;;;;;1.27;0.70;;;17.90;89.80;;;-142.21;100.00;112049.66;5074659;28;20526;-69
2022/10/22 02:54:12;;;;;;;1.30;0.90;;;17.80;89.50;;;-142.21;100.00;112049.66;5074304;28;20998;-69
2022/10/22 02:56:40;;;;;;;0.67;0.60;;;17.80;90.00;;;-142.21;100.00;112049.66;5074416;28;20447;-69
2022/10/22 02:59:07;;;;;;;2.13;1.00;;;17.80;89.80;;;-142.21;100.00;112049.66;5074002;28;20471;-69
2022/10/22 03:01:34;;;;;;;0.60;0.50;;;17.90;89.60;;;-142.21;100.00;112049.66;5063116;28;20436;-70
2022/10/22 03:04:02;;;;;;;0.87;0.50;;;17.80;89.30;;;-142.21;100.00;112049.66;5054111;28;20446;-69
2022/10/22 03:06:30;;;;;;;1.07;0.70;;;17.90;89.30;;;-142.21;100.00;112049.66;5054039;28;20450;-69
2022/10/22 03:08:57;;;;;;;0.90;0.90;;;17.90;89.10;;;-142.21;100.00;112049.66;5063782;28;20912;-69
2022/10/22 03:11:24;;;;;;;2.93;0.90;;;17.90;89.00;;;-142.21;100.00;112049.66;5073900;28;20454;-69
2022/10/22 03:13:51;;;;;;;0.63;0.63;;;17.90;88.90;;;-142.21;100.00;112049.66;5074502;28;20447;-69
2022/10/22 03:16:18;;;;;;;1.20;0.60;;;17.90;88.70;;;-142.21;100.00;112049.66;5073965;28;20449;-69
2022/10/22 03:18:45;;;;;;;2.00;0.77;;;18.00;88.60;;;-142.21;100.00;112049.66;5073895;28;20450;-70
2022/10/22 03:21:27;;;;;;;2.17;1.10;;;18.00;88.20;;;-142.21;100.00;112049.66;5073681;28;20439;-69
2022/10/22 03:23:55;;;;;;;0.87;0.77;;;18.00;87.70;;;-142.21;100.00;112049.66;5073815;28;20475;-70
2022/10/22 03:26:24;;;;;;;1.17;0.70;;;18.00;88.00;;;-142.21;100.00;112049.66;5073878;28;20436;-70
2022/10/22 03:28:52;;;;;;;0.87;0.80;;;17.90;88.00;;;-142.21;100.00;112049.66;5073683;28;21016;-70
2022/10/22 03:31:19;;;;;;;1.73;0.77;;;17.80;88.40;;;-142.21;100.00;112049.66;5073530;28;20463;-70
2022/10/22 03:33:46;;;;;;;0.60;0.60;;;17.70;88.70;;;-142.21;100.00;112049.66;5074262;28;20467;-70
2022/10/22 03:36:15;;;;;;;3.23;1.00;;;17.70;88.90;;;-142.21;100.00;112049.66;5073467;28;20454;-70
2022/10/22 03:38:42;;;;;;;1.23;0.93;;;17.70;89.30;;;-142.21;100.00;112049.66;5072558;28;20443;-70
2022/10/22 03:41:10;;;;;;;0.60;0.60;;;17.80;89.20;;;-142.21;100.00;112049.66;5073029;28;20439;-70
2022/10/22 03:43:39;;;;;;;2.77;0.77;;;17.80;88.50;;;-142.21;100.00;112049.66;5074060;28;20447;-70
2022/10/22 03:46:06;;;;;;;0.80;0.60;;;17.80;88.60;;;-142.21;100.00;112049.66;5073171;28;20439;-69
2022/10/22 03:48:34;;;;;;;1.70;0.97;;;17.80;88.50;;;-142.21;100.00;112049.66;5073656;28;20485;-70
2022/10/22 03:51:01;;;;;;;0.97;0.60;;;17.80;88.60;;;-142.21;100.00;112049.66;5073055;28;20527;-69
2022/10/22 03:53:29;;;;;;;2.77;0.97;;;17.70;88.60;;;-142.21;100.00;112049.66;5073310;28;20804;-69
2022/10/22 03:55:57;;;;;;;1.40;1.03;;;17.70;88.70;;;-142.21;100.00;112049.66;5073328;28;20435;-69
2022/10/22 03:58:24;;;;;;;0.50;0.50;;;17.80;88.60;;;-142.21;100.00;112049.66;5073126;28;20482;-70
2022/10/22 04:00:51;;;;;;;2.30;0.80;;;17.90;88.30;;;-142.21;100.00;112049.66;5067543;28;20531;-69
2022/10/22 04:03:18;;;;;;;2.63;0.90;;;17.90;87.80;;;-142.21;100.00;112049.66;5053136;28;21184;-69
2022/10/22 04:05:45;;;;;;;2.77;0.93;;;17.90;87.70;;;-142.21;100.00;112049.66;5053033;28;20531;-69
2022/10/22 04:08:12;;;;;;;0.63;0.47;;;17.80;87.60;;;-142.21;100.00;112049.66;5056387;28;20451;-69
2022/10/22 04:10:41;;;;;;;1.23;0.77;;;17.70;88.10;;;-142.21;100.00;112049.66;5072813;28;20479;-69
2022/10/22 04:13:08;;;;;;;2.13;0.87;;;17.70;88.20;;;-142.21;100.00;112049.66;5072746;28;20869;-69
2022/10/22 04:15:35;;;;;;;1.40;0.80;;;17.60;88.50;;;-142.21;100.00;112049.66;5072694;28;20470;-69
2022/10/22 04:18:02;;;;;;;3.57;0.90;;;17.60;89.20;;;-142.21;100.00;112049.66;5072285;28;20784;-69
2022/10/22 04:20:29;;;;;;;1.63;1.00;;;17.40;89.90;;;-142.21;100.00;112049.66;5072675;28;20533;-69
2022/10/22 04:22:56;;;;;;;1.10;1.00;;;17.40;90.10;;;-142.21;100.00;112049.66;5072320;28;20542;-69
2022/10/22 04:25:23;;;;;;;2.40;1.10;;;17.40;90.20;;;-142.21;100.00;112049.66;5071905;28;20889;-69
2022/10/22 04:27:52;;;;;;;1.10;0.80;;;17.30;90.40;;;-142.21;100.00;112049.66;5072621;28;20961;-69
2022/10/22 04:30:19;;;;;;;1.40;0.90;;;17.20;90.60;;;-142.21;100.00;112049.66;5052173;28;20483;-69
2022/10/22 04:32:46;;;;;;;0.90;0.70;;;17.20;90.80;;;-142.21;100.00;112049.66;5058396;28;20450;-69
2022/10/22 04:35:13;;;;;;;2.80;1.10;;;17.10;90.90;;;-142.21;100.00;112049.66;5072042;28;20444;-69
2022/10/22 04:37:40;;;;;;;2.47;0.87;;;17.10;91.00;;;-142.21;100.00;112049.66;5073024;28;20449;-70
2022/10/22 04:40:10;;;;;;;2.50;0.80;;;17.10;91.00;;;-142.21;100.00;112049.66;5071810;28;20446;-69
2022/10/22 04:42:40;;;;;;;1.47;0.87;;;17.10;91.10;;;-142.21;100.00;112049.66;5072650;28;20455;-69
2022/10/22 04:45:10;;;;;;;2.77;0.87;;;17.20;91.10;;;-142.21;100.00;112049.66;5072108;28;20440;-69
2022/10/22 04:47:37;;;;;;;2.00;0.97;;;17.20;91.00;;;-142.21;100.00;112049.66;5072467;28;20442;-69
2022/10/22 04:50:06;;;;;;;1.93;0.80;;;17.30;90.90;;;-142.21;100.00;112049.66;5071584;28;20475;-69
2022/10/22 04:52:33;;;;;;;2.77;0.80;;;17.40;90.80;;;-142.21;100.00;112049.66;5072642;28;20439;-69
2022/10/22 04:55:03;;;;;;;0.93;0.80;;;17.40;90.70;;;-142.21;100.00;112049.66;5071839;28;20481;-69
2022/10/22 04:57:31;;;;;;;0.93;0.90;;;17.40;90.60;;;-142.21;100.00;112049.66;5071820;28;20501;-69
2022/10/22 04:59:58;;;;;;;1.23;1.00;;;17.40;90.60;;;-142.21;100.00;112049.66;5072494;28;20445;-69
2022/10/22 05:02:26;;;;;;;1.80;0.93;;;17.50;90.50;;;-142.21;100.00;112049.66;5071816;28;20848;-70
2022/10/22 05:04:54;;;;;;;2.10;0.90;;;17.40;90.50;;;-142.21;100.00;112049.66;5071689;28;20505;-69
2022/10/22 05:07:22;;;;;;;1.53;0.90;;;17.30;90.70;;;-142.21;100.00;112049.66;5071794;28;20530;-69
2022/10/22 05:09:49;;;;;;;1.97;0.93;;;17.20;91.00;;;-142.21;100.00;112049.66;5072370;28;20487;-68
2022/10/22 05:12:17;;;;;;;1.17;1.07;;;17.20;91.20;;;-142.21;100.00;112049.66;5071465;28;20449;-70
2022/10/22 05:14:44;;;;;;;0.90;0.90;;;17.00;91.30;;;-142.21;100.00;112049.66;5072349;28;20480;-70
2022/10/22 05:17:11;;;;;;;1.73;1.07;;;17.00;91.40;;;-142.21;100.00;112049.66;5070807;28;20534;-69
2022/10/22 05:19:40;;;;;;;0.87;0.83;;;17.00;91.40;;;-142.21;100.00;112049.66;5072021;28;20781;-69
2022/10/22 05:22:07;;;;;;;2.87;1.00;;;17.00;91.80;;;-142.21;100.00;112049.66;5071066;28;20452;-70
2022/10/22 05:24:36;;;;;;;1.00;0.90;;;17.00;91.60;;;-142.21;100.00;112049.66;5071728;28;20486;-69
2022/10/22 05:27:04;;;;;;;1.90;1.30;;;17.00;91.50;;;-142.21;100.00;112049.66;5071580;28;20833;-70
2022/10/22 05:29:31;;;;;;;1.50;0.83;;;17.10;91.50;;;-142.21;100.00;112049.66;5072058;28;20585;-70
2022/10/22 05:31:58;;;;;;;0.93;0.87;;;17.00;91.50;;;-142.21;100.00;112049.66;5071929;28;20530;-69
2022/10/22 05:34:25;;;;;;;0.80;0.80;;;17.10;91.50;;;-142.21;100.00;112049.66;5070857;28;20522;-69
2022/10/22 05:36:54;;;;;;;2.17;0.97;;;17.10;91.50;;;-142.21;100.00;112049.66;5071754;28;20804;-69
2022/10/22 05:39:21;;;;;;;2.53;1.20;;;17.10;91.50;;;-142.21;100.00;112049.66;5071259;28;20784;-69
2022/10/22 05:41:48;;;;;;;1.50;1.10;;;17.10;91.50;;;-142.21;100.00;112049.66;5072034;28;20446;-69
2022/10/22 05:44:15;;;;;;;1.10;1.00;;;17.10;91.40;;;-142.21;100.00;112049.66;5071487;28;20530;-69
2022/10/22 05:46:43;;;;;;;1.20;1.10;;;17.10;91.40;;;-142.21;100.00;112049.66;5071444;28;20482;-69
2022/10/22 05:49:14;;;;;;;1.10;1.00;;;17.10;91.40;;;-142.21;100.00;112049.66;5070816;28;20483;-68
2022/10/22 05:51:42;;;;;;;2.50;1.50;;;17.20;91.30;;;-142.21;100.00;112049.66;5071900;28;20854;-68
2022/10/22 05:54:21;;;;;;;2.00;1.20;;;17.20;91.20;;;-142.21;100.00;112049.66;5071648;28;20453;-69
2022/10/22 05:56:48;;;;;;;3.20;1.10;;;17.30;91.00;;;-142.21;100.00;112049.66;5071763;28;20431;-69
2022/10/22 05:59:15;;;;;;;2.73;1.20;;;17.30;90.90;;;-142.21;100.00;112049.66;5071453;28;20823;-69
2022/10/22 06:01:42;;;;;;;1.30;1.20;;;17.30;90.90;;;-142.21;100.00;112049.66;5058518;28;20509;-69
2022/10/22 06:04:12;;;;;;;1.73;1.43;;;17.30;90.90;;;-142.21;100.00;112049.66;5050909;28;20944;-69
2022/10/22 06:06:43;;;;;;;1.53;1.20;;;17.30;90.90;;;-142.21;100.00;112049.66;5052411;28;20444;-69
2022/10/22 06:09:18;;;;;;;2.67;1.13;;;17.40;90.80;;;-142.21;100.00;112049.66;5068740;28;20554;-69
2022/10/22 06:11:45;;;;;;;1.50;1.10;;;17.40;90.70;;;-142.21;100.00;112049.66;5075680;28;20791;-69
2022/10/22 06:14:13;;;;;;;4.00;1.60;;;17.40;90.60;;;-142.21;100.00;112049.66;5075093;28;20475;-69
2022/10/22 06:16:42;;;;;;;1.40;0.90;;;17.40;90.60;;;-142.21;100.00;112049.66;5074767;28;20457;-69
2022/10/22 06:19:12;;;;;;;1.00;1.00;;;17.40;90.50;;;-142.21;100.00;112049.66;5074753;28;20516;-69
2022/10/22 06:21:39;;;;;;;2.43;1.60;;;17.40;90.50;;;-142.21;100.00;112049.66;5075125;28;20833;-69
2022/10/22 06:24:08;;;;;;;2.17;1.30;;;17.50;90.50;;;-142.21;100.00;112049.66;5074480;28;20493;-69
2022/10/22 06:26:36;;;;;;;2.27;1.47;;;17.40;90.40;;;-142.21;100.00;112049.66;5075122;28;20526;-69
2022/10/22 06:29:04;;;;;;;2.57;1.50;;;17.40;90.50;;;-142.21;100.00;112049.66;5074460;28;20474;-69
2022/10/22 06:31:35;;;;;;;1.10;1.00;;;17.40;90.60;;;-142.21;100.00;112049.66;5074577;28;20980;-69
2022/10/22 06:34:02;;;;;;;1.77;1.13;;;17.40;90.70;;;-142.21;100.00;112049.66;5075046;28;20443;-69
2022/10/22 06:36:32;;;;;;;2.97;1.10;;;17.40;90.80;;;-142.21;100.00;112049.66;5074550;28;20820;-70
2022/10/22 06:39:00;;;;;;;2.50;1.63;;;17.40;90.70;;;-142.21;100.00;112049.66;5075513;28;20535;-69
2022/10/22 06:41:27;;;;;;;4.87;1.10;;;17.40;90.70;;;-142.21;100.00;112049.66;5074234;28;20483;-69
2022/10/22 06:43:57;;;;;;;2.23;1.47;;;17.40;90.80;;;-142.21;100.00;112049.66;5074525;28;20955;-69
2022/10/22 06:46:25;;;;;;;3.00;1.50;;;17.50;90.80;;;-142.21;100.00;112049.66;5074145;28;20466;-68
2022/10/22 06:48:56;;;;;;;2.00;1.33;;;17.50;90.80;;;-142.21;100.00;112049.66;5074543;28;20994;-70
2022/10/22 06:51:23;;;;;;;1.73;1.27;;;17.50;90.80;;;-142.21;100.00;112049.66;5073792;28;20505;-69
2022/10/22 06:53:51;;;;;;;3.07;1.70;;;17.40;90.70;;;-142.21;100.00;112049.66;5074507;28;20463;-69
2022/10/22 06:56:21;;;;;;;2.27;1.17;;;17.40;90.80;;;-142.21;100.00;112049.66;5074394;28;20477;-70
2022/10/22 06:58:49;;;;;;;2.43;1.43;;;17.40;90.80;;;-142.21;100.00;112049.66;5074751;28;20493;-70
2022/10/22 07:01:25;;;;;;;1.30;1.20;;;17.50;90.80;;;-142.21;100.00;112049.66;5072879;28;20446;-70
2022/10/22 07:03:53;;;;;;;2.27;1.50;;;17.50;90.70;;;-142.21;100.00;112049.66;5062376;28;20439;-70
2022/10/22 07:06:22;;;;;;;2.10;1.20;;;17.50;90.80;;;-142.21;100.00;112049.66;5073616;28;20969;-69
2022/10/22 07:08:49;;;;;;;2.07;1.10;;;17.50;90.70;;;-142.21;100.00;112049.66;5054524;28;20444;-69
2022/10/22 07:11:19;;;;;;;3.40;1.23;;;17.50;90.70;;;-142.21;100.00;112049.66;5062023;28;20475;-69
2022/10/22 07:13:48;;;;;;;1.90;1.33;;;17.60;90.60;;;-142.21;100.00;112049.66;5074391;28;20856;-69
2022/10/22 07:16:18;;;;;;;2.03;1.50;;;17.60;90.50;;;-142.21;100.00;112049.66;5073470;28;20459;-70
2022/10/22 07:18:47;;;;;;;2.67;1.20;;;17.70;90.60;;;-142.21;100.00;112049.66;5072322;28;20842;-69
2022/10/22 07:21:19;;;;;;;1.40;0.90;;;17.80;90.40;;;-142.21;100.00;112049.66;5073385;28;20479;-68
2022/10/22 07:23:46;;;;;;;3.27;1.13;;;17.80;90.30;;;-142.21;100.00;112049.66;5073858;28;20490;-69
2022/10/22 07:26:19;;;;;;;1.93;1.40;;;17.80;90.30;;;-142.21;100.00;112049.66;5073775;28;20822;-69
2022/10/22 07:28:46;;;;;;;2.43;1.10;;;17.80;90.30;;;-142.21;100.00;112049.66;5074139;28;20424;-69
2022/10/22 07:31:18;;;;;;;0.93;0.93;;;17.80;90.40;;;-142.21;100.00;112049.66;5072870;28;20519;-69
2022/10/22 07:33:46;;;;;;;2.47;1.23;;;17.90;90.40;;;-142.21;100.00;112049.66;5074198;28;20526;-68
2022/10/22 07:36:17;;;;;;;1.33;1.20;;;18.00;90.40;;;-142.21;100.00;112049.66;5073324;28;20561;-69
2022/10/22 07:38:45;;;;;;;1.67;1.20;;;18.00;90.20;;;-142.21;100.00;112049.66;5073745;28;20436;-69
2022/10/22 07:41:12;;;;;;;2.27;1.23;;;18.10;90.20;;;-142.21;100.00;112049.66;5072425;28;20953;-69
2022/10/22 07:43:39;;;;;;;1.30;1.13;;;18.20;90.00;;;-142.21;100.00;112049.66;5073272;28;20483;-69
2022/10/22 07:46:08;;;;;;;1.67;1.20;;;18.30;90.00;;;-142.21;100.00;112049.66;5073121;28;20534;-69
2022/10/22 07:48:37;;;;;;;1.57;1.37;;;18.40;89.90;;;-142.21;100.00;112049.66;5073162;28;20778;-69
2022/10/22 07:51:05;;;;;;;1.37;1.00;;;18.50;89.60;;;-142.21;100.00;112049.66;5073323;28;20501;-69
2022/10/22 07:53:33;;;;;;;3.03;1.07;;;18.60;89.20;;;-142.21;100.00;112049.66;5073191;28;20514;-70
2022/10/22 07:56:00;;;;;;;3.17;1.10;;;18.70;88.30;;;-142.21;100.00;112049.66;5073054;28;20956;-68
2022/10/22 07:58:27;;;;;;;5.30;1.10;;;18.80;88.30;;;-142.21;100.00;112049.66;5072230;28;20440;-69
2022/10/22 08:00:59;;;;;;;1.33;1.20;;;18.80;87.90;;;-142.21;100.00;112049.66;5067009;28;20447;-69
2022/10/22 08:03:27;;;;;;;1.20;0.90;;;18.80;87.00;;;-142.21;100.00;112049.66;5061485;28;20186;-69
2022/10/22 08:05:56;;;;;;;0.80;0.80;;;18.90;87.30;;;-142.21;100.00;112049.66;5070444;28;20542;-69
2022/10/22 08:08:25;;;;;;;0.80;0.80;;;19.00;87.20;;;-142.21;100.00;112049.66;5063731;28;20472;-69
2022/10/22 08:10:53;;;;;;;1.20;0.80;;;19.10;87.20;;;-142.21;100.00;112049.66;5053453;28;20272;-69
2022/10/22 08:13:21;;;;;;;3.00;1.17;;;19.10;86.50;;;-142.21;100.00;112049.66;5071003;28;20447;-69
2022/10/22 08:15:48;;;;;;;1.27;1.17;;;19.20;86.10;;;-142.21;100.00;112049.66;5073499;28;20528;-68
2022/10/22 08:18:16;;;;;;;3.07;1.10;;;19.20;85.80;;;-142.21;100.00;112049.66;5072248;28;20447;-69
2022/10/22 08:20:43;;;;;;;3.83;1.10;;;19.30;85.80;;;-142.21;100.00;112049.66;5073367;28;20442;-69
2022/10/22 08:23:12;;;;;;;1.10;1.00;;;19.40;85.50;;;-142.21;100.00;112049.66;5072825;28;20497;-68
2022/10/22 08:25:39;;;;;;;1.00;0.90;;;19.60;85.90;;;-142.21;100.00;112049.66;5072311;28;20495;-68
2022/10/22 08:28:07;;;;;;;3.27;1.07;;;19.80;85.30;;;-142.21;100.00;112049.66;5072597;28;20204;-68
2022/10/22 08:30:36;;;;;;;1.80;0.73;;;19.90;83.90;;;-142.21;100.00;112049.66;5071704;28;20228;-68
2022/10/22 08:33:04;;;;;;;1.57;1.00;;;20.10;83.40;;;-142.21;100.00;112049.66;5072962;28;20236;-69
2022/10/22 08:35:32;;;;;;;2.23;1.00;;;20.20;82.50;;;-142.21;100.00;112049.66;5072063;28;20259;-69
2022/10/22 08:37:59;;;;;;;1.50;0.90;;;20.20;82.40;;;-142.21;100.00;112049.66;5072486;28;20205;-69
2022/10/22 08:40:32;;;;;;;1.53;0.90;;;20.30;82.20;;;-142.21;100.00;112049.66;5072059;28;20203;-69
2022/10/22 08:43:36;;;;;;;1.43;1.03;;;20.40;82.30;;;-142.21;100.00;112049.66;5072264;28;20231;-68
2022/10/22 08:46:21;;;;;;;1.80;1.17;;;20.50;82.10;;;-142.21;100.00;112049.66;5072652;28;20250;-69
2022/10/22 08:48:53;;;;;;;2.33;0.87;;;20.60;80.90;;;-142.21;100.00;112049.66;5072774;28;20217;-69
2022/10/22 08:51:25;;;;;;;3.10;1.10;;;20.70;81.00;;;-142.21;100.00;112049.66;5072003;28;20254;-70
2022/10/22 08:54:17;;;;;;;1.80;0.90;;;20.80;80.40;;;-142.21;100.00;112049.66;5037022;28;20241;-69
2022/10/22 08:57:00;;;;;;;1.47;0.80;;;20.80;78.30;;;-142.21;100.00;112049.66;5072477;28;20319;-70
2022/10/22 08:59:36;;;;;;;1.30;1.17;;;20.70;78.80;;;-142.21;100.00;112049.66;5071788;28;20189;-69
2022/10/22 09:02:13;;;;;;;3.23;0.90;;;20.60;78.50;;;-142.21;100.00;112049.66;5036980;28;20204;-68
2022/10/22 09:04:50;;;;;;;2.90;1.00;;;20.60;79.60;;;-142.21;100.00;112049.66;5072578;28;20782;-69
2022/10/22 09:07:17;;;;;;;2.40;0.87;;;20.70;79.50;;;-142.21;100.00;112049.66;5071638;28;20248;-69
2022/10/22 09:09:53;;;;;;;0.90;0.87;;;20.80;78.90;;;-142.21;100.00;112049.66;5071861;28;20244;-69
2022/10/22 09:12:29;;;;;;;2.03;1.10;;;20.90;78.40;;;-142.21;100.00;112049.66;5071449;28;20197;-69
2022/10/22 09:14:56;;;;;;;1.47;0.80;;;21.00;77.40;;;-142.21;100.00;112049.66;5072481;28;20192;-70
2022/10/22 09:17:37;;;;;;;2.10;0.90;;;20.90;77.50;;;-142.21;100.00;112049.66;5071558;28;20236;-69
2022/10/22 09:20:15;;;;;;;1.53;0.80;;;20.80;77.90;;;-142.21;100.00;112049.66;5072370;28;20272;-70
2022/10/22 09:22:52;;;;;;;1.00;0.90;;;20.80;78.60;;;-142.21;100.00;112049.66;5072325;28;20562;-69
2022/10/22 09:25:23;;;;;;;2.33;1.40;;;20.80;77.60;;;-142.21;100.00;112049.66;5071225;28;20649;-69
2022/10/22 09:27:57;;;;;;;0.83;0.80;;;20.80;78.50;;;-142.21;100.00;112049.66;5072149;28;20255;-68
2022/10/22 09:30:28;;;;;;;3.30;1.17;;;20.80;78.40;;;-142.21;100.00;112049.66;5071545;28;20205;-69
2022/10/22 09:33:11;;;;;;;1.10;0.80;;;20.80;78.90;;;-142.21;100.00;112049.66;5072389;28;20281;-69
2022/10/22 09:35:47;;;;;;;4.07;1.10;;;20.90;78.00;;;-142.21;100.00;112049.66;5071407;28;20284;-70
2022/10/22 09:38:19;;;;;;;1.10;1.00;;;20.90;77.10;;;-142.21;100.00;112049.66;5071424;28;20220;-69
2022/10/22 09:40:50;;;;;;;1.57;0.93;;;20.90;77.60;;;-142.21;100.00;112049.66;5038264;28;20247;-70
2022/10/22 09:43:19;;;;;;;2.87;0.90;;;21.00;77.60;;;-142.21;99.57;112049.66;5075705;28;20220;-69
2022/10/22 09:45:48;;;;;;;2.03;0.90;;;21.10;76.90;;;-142.21;99.05;112049.66;5076020;28;20205;-69
2022/10/22 09:48:25;;;;;;;0.93;0.87;;;21.20;76.50;;;-142.21;99.52;112049.66;5075381;28;20291;-69
2022/10/22 09:51:04;;;;;;;1.40;0.90;;;21.30;76.90;;;-142.21;97.76;112049.66;5075765;28;20213;-69
2022/10/22 09:53:39;;;;;;;1.20;1.13;;;21.40;75.40;;;-142.21;98.23;112049.66;5075375;28;20193;-68
2022/10/22 09:56:10;;;;;;;1.83;0.80;;;21.40;76.10;;;-142.21;96.98;112049.66;5075902;28;20292;-70
2022/10/22 09:58:50;;;;;;;1.23;1.00;;;21.50;75.60;;;-142.21;96.63;112049.66;5075439;28;20269;-70
2022/10/22 10:01:29;;;;;;;2.93;0.90;;;21.50;75.10;;;-142.21;97.43;112049.66;5066286;28;20545;-69
2022/10/22 10:04:04;;;;;;;0.80;0.77;;;21.70;76.00;;;-142.21;94.56;112049.66;5055621;28;20218;-70
2022/10/22 10:06:35;;;;;;;2.90;0.87;;;22.00;73.70;;;-142.21;95.58;112049.66;5054871;28;20738;-70